Time;durP1;ratioP1;P1;durP2;ratioP2;P2;SDS_P1;SDS_P2;PMS_P1;PMS_P2;Temp;Humidity;BMP_temperature;BMP_pressure;BME280_temperature;BME280_humidity;BME280_pressure;Samples;Min_cycle;Max_cycle;Signal;HPM_P1;HPM_P2
2021/10/02 00:35:08;;;;;;;;;;;;;;;;;;2103589;28;1622;-80
2021/10/02 00:36:22;;;;;;;;;;;;;;;;;;2101854;28;1245;-80
2021/10/02 00:37:33;;;;;;;;;;;;;;;;;;2101102;28;1425;-80
2021/10/02 00:41:34;;;;;;;;;;;;;;;;;;2101752;28;1613;-81
2021/10/02 00:45:39;;;;;;;;;;;;;;;;;;2070048;28;1726;-80
2021/10/02 00:46:41;;;;;;;;;;;;;;;;;;2071298;28;1205;-81
2021/10/02 00:47:43;;;;;;;;;;;;;;;;;;2066208;28;1540;-80
2021/10/02 00:48:44;;;;;;;;;;;;;;;;;;2074076;28;1584;-80
2021/10/02 00:49:47;;;;;;;;;;;;;;;;;;2102103;28;919;-81
2021/10/02 00:50:48;;;;;;;;;;;;;;;;;;2119232;28;1659;-81
2021/10/02 00:51:50;;;;;;;;;;;;;;;;;;2115712;28;1222;-81
2021/10/02 00:52:51;;;;;;;;;;;;;;;;;;2107086;28;1908;-80
2021/10/02 00:53:53;;;;;;;;;;;;;;;;;;2107542;28;1333;-80
2021/10/02 00:54:53;;;;;;;;;;;;;;;;;;2107534;28;1300;-80
2021/10/02 00:55:55;;;;;;;;;;;;;;;;;;2121032;28;1898;-80
2021/10/02 00:56:56;;;;;;;;;;;;;;;;;;2123892;28;1320;-80
2021/10/02 00:57:58;;;;;;;;;;;;;;;;;;2116015;28;1676;-80
2021/10/02 00:58:59;;;;;;;;;;;;;;;;;;2124297;28;1225;-80
2021/10/02 01:00:01;;;;;;;;;;;;;;;;;;2116105;28;1504;-80
2021/10/02 01:01:03;;;;;;;;;;;;;;;;;;2107552;28;2056;-80
2021/10/02 01:02:10;;;;;;;;;;;;;;;;;;2099163;28;1699;-80
2021/10/02 01:03:15;;;;;;;;;;;;;;;;;;2099934;28;1603;-80
2021/10/02 01:04:19;;;;;;;;;;;;;;;;;;2099320;28;1531;-81
2021/10/02 01:05:35;;;;;;;;;;;;;;;;;;2099764;28;1242;-80
2021/10/02 01:06:46;;;;;;;;;;;;;;;;;;2106582;28;1603;-80
2021/10/02 01:07:53;;;;;;;;;;;;;;;;;;2108963;28;847;-80
2021/10/02 01:08:58;;;;;;;;;;;;;;;;;;2108945;28;1688;-80
2021/10/02 01:10:09;;;;;;;;;;;;;;;;;;2100931;28;1594;-80
2021/10/02 01:11:16;;;;;;;;;;;;;;;;;;2109339;28;894;-80
2021/10/02 01:12:23;;;;;;;;;;;;;;;;;;2109498;28;788;-81
2021/10/02 01:13:29;;;;;;;;;;;;;;;;;;2108650;28;1542;-80
2021/10/02 01:14:33;;;;;;;;;;;;;;;;;;2101366;28;1773;-81
2021/10/02 01:15:39;;;;;;;;;;;;;;;;;;2101007;28;1289;-80
2021/10/02 01:16:42;;;;;;;;;;;;;;;;;;2101500;28;1289;-81
2021/10/02 01:17:51;;;;;;;;;;;;;;;;;;2108769;28;1643;-81
2021/10/02 01:18:54;;;;;;;;;;;;;;;;;;2101113;28;1706;-80
2021/10/02 01:19:58;;;;;;;;;;;;;;;;;;2100900;28;1528;-80
2021/10/02 01:21:07;;;;;;;;;;;;;;;;;;2108406;28;1913;-80
2021/10/02 01:22:13;;;;;;;;;;;;;;;;;;2106306;28;1564;-80
2021/10/02 01:23:20;;;;;;;;;;;;;;;;;;2108800;28;1398;-81
2021/10/02 01:24:31;;;;;;;;;;;;;;;;;;2109647;28;1536;-80
2021/10/02 01:25:42;;;;;;;;;;;;;;;;;;2109354;28;1343;-80
2021/10/02 01:26:59;;;;;;;;;;;;;;;;;;2110250;28;1421;-80
2021/10/02 01:28:03;;;;;;;;;;;;;;;;;;2109368;28;1375;-81
2021/10/02 01:29:07;;;;;;;;;;;;;;;;;;2100629;28;1529;-81
2021/10/02 01:30:14;;;;;;;;;;;;;;;;;;2100930;28;1592;-80
2021/10/02 01:31:21;;;;;;;;;;;;;;;;;;2101449;28;1526;-80
2021/10/02 01:32:29;;;;;;;;;;;;;;;;;;2108865;28;1639;-81
2021/10/02 01:33:37;;;;;;;;;;;;;;;;;;2109831;28;1232;-80
2021/10/02 01:34:46;;;;;;;;;;;;;;;;;;2108828;28;1645;-81
2021/10/02 01:35:54;;;;;;;;;;;;;;;;;;2110031;28;1680;-81
2021/10/02 01:37:03;;;;;;;;;;;;;;;;;;2108872;28;1700;-80
2021/10/02 01:47:30;;;;;;;;;;;;;;;;;;2111756;28;1541;-80
2021/10/02 01:48:31;;;;;;;;;;;;;;;;;;2108603;28;1387;-80
2021/10/02 01:49:34;;;;;;;;;;;;;;;;;;2100387;28;1453;-80
2021/10/02 01:50:38;;;;;;;;;;;;;;;;;;2099981;28;1742;-80
2021/10/02 01:51:39;;;;;;;;;;;;;;;;;;2100217;28;1430;-80
2021/10/02 01:52:43;;;;;;;;;;;;;;;;;;2108376;28;1388;-80
2021/10/02 01:53:45;;;;;;;;;;;;;;;;;;2108614;28;1517;-80
2021/10/02 01:54:48;;;;;;;;;;;;;;;;;;2108237;28;1333;-80
2021/10/02 01:55:51;;;;;;;;;;;;;;;;;;2100845;28;1657;-80
2021/10/02 01:56:53;;;;;;;;;;;;;;;;;;2100248;28;1755;-80
2021/10/02 01:57:58;;;;;;;;;;;;;;;;;;2108289;28;1710;-80
2021/10/02 01:59:01;;;;;;;;;;;;;;;;;;2116944;28;1678;-80
2021/10/02 02:00:05;;;;;;;;;;;;;;;;;;2116688;28;1670;-80
2021/10/02 02:01:06;;;;;;;;;;;;;;;;;;2116626;28;1901;-80
2021/10/02 02:02:10;;;;;;;;;;;;;;;;;;2108760;28;1352;-80
2021/10/02 02:03:14;;;;;;;;;;;;;;;;;;2100236;28;1436;-80
2021/10/02 02:04:15;;;;;;;;;;;;;;;;;;2108813;28;1652;-81
2021/10/02 02:05:19;;;;;;;;;;;;;;;;;;2108187;28;1313;-80
2021/10/02 02:06:20;;;;;;;;;;;;;;;;;;2116872;28;1210;-80
2021/10/02 02:07:23;;;;;;;;;;;;;;;;;;2100169;28;1396;-80
2021/10/02 02:08:24;;;;;;;;;;;;;;;;;;2109341;28;1348;-80
2021/10/02 02:09:30;;;;;;;;;;;;;;;;;;2099999;28;1576;-80
2021/10/02 02:10:31;;;;;;;;;;;;;;;;;;2111610;27;2142;-80
2021/10/02 02:11:35;;;;;;;;;;;;;;;;;;2109105;28;1249;-80
2021/10/02 02:12:37;;;;;;;;;;;;;;;;;;2108319;28;1286;-80
2021/10/02 02:13:40;;;;;;;;;;;;;;;;;;2116912;28;1575;-80
2021/10/02 02:14:43;;;;;;;;;;;;;;;;;;2108544;28;1223;-80
2021/10/02 02:15:45;;;;;;;;;;;;;;;;;;2108298;28;1553;-80
2021/10/02 02:16:47;;;;;;;;;;;;;;;;;;2108165;28;1393;-80
2021/10/02 02:17:51;;;;;;;;;;;;;;;;;;2099837;28;1534;-80
2021/10/02 02:18:53;;;;;;;;;;;;;;;;;;2108513;28;883;-80
2021/10/02 02:19:56;;;;;;;;;;;;;;;;;;2108335;28;1821;-80
2021/10/02 02:20:59;;;;;;;;;;;;;;;;;;2107110;28;2224;-80
2021/10/02 02:22:02;;;;;;;;;;;;;;;;;;2100394;28;1726;-81
2021/10/02 02:23:03;;;;;;;;;;;;;;;;;;2099934;28;1203;-81
2021/10/02 02:24:05;;;;;;;;;;;;;;;;;;2108063;28;1452;-81
2021/10/02 02:25:06;;;;;;;;;;;;;;;;;;2108238;28;1215;-82
2021/10/02 02:26:09;;;;;;;;;;;;;;;;;;2100555;28;1570;-81
2021/10/02 02:27:10;;;;;;;;;;;;;;;;;;2099973;28;1344;-81
2021/10/02 02:28:12;;;;;;;;;;;;;;;;;;2099522;28;1639;-81
2021/10/02 02:29:13;;;;;;;;;;;;;;;;;;2108183;28;1794;-81
2021/10/02 02:30:16;;;;;;;;;;;;;;;;;;2116826;28;1765;-81
2021/10/02 02:31:17;;;;;;;;;;;;;;;;;;2116311;28;1178;-81
2021/10/02 02:32:19;;;;;;;;;;;;;;;;;;2099958;28;1215;-81
2021/10/02 02:33:20;;;;;;;;;;;;;;;;;;2108520;28;1195;-82
2021/10/02 02:34:22;;;;;;;;;;;;;;;;;;2108225;28;1616;-81
2021/10/02 02:35:23;;;;;;;;;;;;;;;;;;2108374;28;1689;-81
2021/10/02 02:36:25;;;;;;;;;;;;;;;;;;2099958;28;1469;-81
2021/10/02 02:37:27;;;;;;;;;;;;;;;;;;2099931;28;1417;-81
2021/10/02 02:38:29;;;;;;;;;;;;;;;;;;2108116;28;1500;-80
2021/10/02 02:39:29;;;;;;;;;;;;;;;;;;2108493;28;898;-81
2021/10/02 02:40:31;;;;;;;;;;;;;;;;;;2100107;28;1424;-81
2021/10/02 02:41:32;;;;;;;;;;;;;;;;;;2099511;28;1902;-81
2021/10/02 02:42:34;;;;;;;;;;;;;;;;;;2099840;28;1663;-81
2021/10/02 02:43:35;;;;;;;;;;;;;;;;;;2100027;28;1551;-81
2021/10/02 02:44:38;;;;;;;;;;;;;;;;;;2099779;28;1851;-81
2021/10/02 02:45:43;;;;;;;;;;;;;;;;;;2117545;27;1814;-81
2021/10/02 02:46:49;;;;;;;;;;;;;;;;;;2124754;27;1723;-81
2021/10/02 02:47:53;;;;;;;;;;;;;;;;;;2116894;27;1529;-81
2021/10/02 02:48:58;;;;;;;;;;;;;;;;;;2116996;28;1245;-81
2021/10/02 02:50:01;;;;;;;;;;;;;;;;;;2117179;27;1225;-81
2021/10/02 02:51:06;;;;;;;;;;;;;;;;;;2116513;28;1393;-81
2021/10/02 02:52:10;;;;;;;;;;;;;;;;;;2117082;28;856;-81
2021/10/02 02:53:17;;;;;;;;;;;;;;;;;;2115839;28;2006;-81
2021/10/02 02:54:21;;;;;;;;;;;;;;;;;;2108231;28;933;-81
2021/10/02 02:55:26;;;;;;;;;;;;;;;;;;2108014;28;1666;-81
2021/10/02 02:56:30;;;;;;;;;;;;;;;;;;2099648;28;1683;-81
2021/10/02 02:57:36;;;;;;;;;;;;;;;;;;2100188;28;1663;-81
2021/10/02 02:58:39;;;;;;;;;;;;;;;;;;2103544;28;1899;-81
2021/10/02 02:59:44;;;;;;;;;;;;;;;;;;2100163;28;1659;-80
2021/10/02 03:00:53;;;;;;;;;;;;;;;;;;2105552;28;1626;-80
2021/10/02 03:01:56;;;;;;;;;;;;;;;;;;2109875;28;1266;-80
2021/10/02 03:03:00;;;;;;;;;;;;;;;;;;2116641;28;891;-81
2021/10/02 03:04:03;;;;;;;;;;;;;;;;;;2116543;28;1683;-80
2021/10/02 03:05:05;;;;;;;;;;;;;;;;;;2116432;28;1258;-80
2021/10/02 03:06:09;;;;;;;;;;;;;;;;;;2108458;28;1782;-80
2021/10/02 03:07:11;;;;;;;;;;;;;;;;;;2108390;28;1255;-80
2021/10/02 03:08:16;;;;;;;;;;;;;;;;;;2116376;28;1321;-81
2021/10/02 03:09:17;;;;;;;;;;;;;;;;;;2108325;28;863;-80
2021/10/02 03:10:19;;;;;;;;;;;;;;;;;;2100863;28;1672;-81
2021/10/02 03:11:22;;;;;;;;;;;;;;;;;;2107886;28;1320;-80
2021/10/02 03:12:28;;;;;;;;;;;;;;;;;;2116476;28;1515;-80
2021/10/02 03:13:31;;;;;;;;;;;;;;;;;;2110885;28;1998;-80
2021/10/02 03:14:33;;;;;;;;;;;;;;;;;;2116580;28;1221;-80
2021/10/02 03:15:35;;;;;;;;;;;;;;;;;;2120531;27;1725;-80
2021/10/02 03:16:39;;;;;;;;;;;;;;;;;;2108212;28;1309;-80
2021/10/02 03:17:42;;;;;;;;;;;;;;;;;;2108488;28;1374;-79
2021/10/02 03:18:45;;;;;;;;;;;;;;;;;;2116506;28;1706;-80
2021/10/02 03:19:47;;;;;;;;;;;;;;;;;;2108611;28;1644;-80
2021/10/02 03:20:49;;;;;;;;;;;;;;;;;;2108070;28;1652;-81
2021/10/02 03:21:52;;;;;;;;;;;;;;;;;;2108270;28;1902;-82
2021/10/02 03:22:55;;;;;;;;;;;;;;;;;;2107876;28;1294;-81
2021/10/02 03:23:56;;;;;;;;;;;;;;;;;;2108426;28;1671;-81
2021/10/02 03:24:59;;;;;;;;;;;;;;;;;;2116473;28;877;-80
2021/10/02 03:26:00;;;;;;;;;;;;;;;;;;2116012;28;1749;-81
2021/10/02 03:27:03;;;;;;;;;;;;;;;;;;2107940;28;1529;-81
2021/10/02 03:28:04;;;;;;;;;;;;;;;;;;2116526;28;1523;-81
2021/10/02 03:29:07;;;;;;;;;;;;;;;;;;2098826;28;1641;-81
2021/10/02 03:30:09;;;;;;;;;;;;;;;;;;2099709;28;2025;-81
2021/10/02 03:31:11;;;;;;;;;;;;;;;;;;2115778;28;1339;-80
2021/10/02 03:32:14;;;;;;;;;;;;;;;;;;2116564;28;1132;-81
2021/10/02 03:33:16;;;;;;;;;;;;;;;;;;2107979;28;1561;-81
2021/10/02 03:34:16;;;;;;;;;;;;;;;;;;2099289;28;1314;-81
2021/10/02 03:35:19;;;;;;;;;;;;;;;;;;2108062;28;1953;-81
2021/10/02 03:36:21;;;;;;;;;;;;;;;;;;2108067;28;1697;-81
2021/10/02 03:37:21;;;;;;;;;;;;;;;;;;2107912;28;1555;-80
2021/10/02 03:38:23;;;;;;;;;;;;;;;;;;2099254;28;1359;-81
2021/10/02 03:39:24;;;;;;;;;;;;;;;;;;2108243;28;1588;-81
2021/10/02 03:40:26;;;;;;;;;;;;;;;;;;2116093;28;1333;-82
2021/10/02 03:41:27;;;;;;;;;;;;;;;;;;2116512;28;1914;-82
2021/10/02 03:42:29;;;;;;;;;;;;;;;;;;2125054;27;1410;-83
2021/10/02 03:43:30;;;;;;;;;;;;;;;;;;2117021;28;1329;-83
2021/10/02 03:44:32;;;;;;;;;;;;;;;;;;2116478;28;1194;-83
2021/10/02 03:45:36;;;;;;;;;;;;;;;;;;2099782;28;1642;-82
2021/10/02 03:46:38;;;;;;;;;;;;;;;;;;2100356;28;1267;-82
2021/10/02 03:47:40;;;;;;;;;;;;;;;;;;2109036;28;1187;-82
2021/10/02 03:48:42;;;;;;;;;;;;;;;;;;2111867;28;1202;-81
2021/10/02 03:49:43;;;;;;;;;;;;;;;;;;2112340;28;1248;-82
2021/10/02 03:50:45;;;;;;;;;;;;;;;;;;2112892;28;2079;-82
2021/10/02 03:51:46;;;;;;;;;;;;;;;;;;2112472;28;1198;-81
2021/10/02 03:52:48;;;;;;;;;;;;;;;;;;2111341;28;1348;-84
2021/10/02 03:53:49;;;;;;;;;;;;;;;;;;2111906;28;1308;-82
2021/10/02 03:54:51;;;;;;;;;;;;;;;;;;2107840;28;1502;-81
2021/10/02 03:55:52;;;;;;;;;;;;;;;;;;2108170;28;1384;-82
2021/10/02 03:56:54;;;;;;;;;;;;;;;;;;2107730;28;1313;-82
2021/10/02 03:57:54;;;;;;;;;;;;;;;;;;2116548;28;1657;-82
2021/10/02 03:58:57;;;;;;;;;;;;;;;;;;2116319;28;1391;-82
2021/10/02 03:59:57;;;;;;;;;;;;;;;;;;2108016;28;1187;-82
2021/10/02 04:00:59;;;;;;;;;;;;;;;;;;2107301;28;1321;-81
2021/10/02 04:02:00;;;;;;;;;;;;;;;;;;2108017;28;1909;-82
2021/10/02 04:03:03;;;;;;;;;;;;;;;;;;2107976;28;1695;-82
2021/10/02 04:04:04;;;;;;;;;;;;;;;;;;2108339;28;2074;-82
2021/10/02 04:05:07;;;;;;;;;;;;;;;;;;2107858;28;1265;-82
2021/10/02 04:06:08;;;;;;;;;;;;;;;;;;2107765;28;1263;-82
2021/10/02 04:07:10;;;;;;;;;;;;;;;;;;2107782;28;1849;-81
2021/10/02 04:08:11;;;;;;;;;;;;;;;;;;2098902;28;1409;-82
2021/10/02 04:09:13;;;;;;;;;;;;;;;;;;2099378;28;1214;-83
2021/10/02 04:10:14;;;;;;;;;;;;;;;;;;2107355;28;1850;-87
2021/10/02 04:11:15;;;;;;;;;;;;;;;;;;2116556;28;1245;-83
2021/10/02 04:12:17;;;;;;;;;;;;;;;;;;2124742;27;916;-83
2021/10/02 04:13:19;;;;;;;;;;;;;;;;;;2116591;28;1332;-83
2021/10/02 04:14:20;;;;;;;;;;;;;;;;;;2107509;28;1395;-83
2021/10/02 04:15:22;;;;;;;;;;;;;;;;;;2107398;28;1239;-83
2021/10/02 04:16:22;;;;;;;;;;;;;;;;;;2107726;28;1349;-83
2021/10/02 04:17:24;;;;;;;;;;;;;;;;;;2107472;28;1350;-83
2021/10/02 04:18:26;;;;;;;;;;;;;;;;;;2107760;28;1285;-83
2021/10/02 04:19:28;;;;;;;;;;;;;;;;;;2107742;28;1345;-83
2021/10/02 04:20:29;;;;;;;;;;;;;;;;;;2099254;28;1252;-83
2021/10/02 04:21:32;;;;;;;;;;;;;;;;;;2107469;28;1981;-83
2021/10/02 04:22:33;;;;;;;;;;;;;;;;;;2107333;28;1332;-82
2021/10/02 04:23:35;;;;;;;;;;;;;;;;;;2107702;28;1556;-82
2021/10/02 04:24:36;;;;;;;;;;;;;;;;;;2107969;28;1230;-82
2021/10/02 04:25:37;;;;;;;;;;;;;;;;;;2107873;28;1358;-82
2021/10/02 04:26:38;;;;;;;;;;;;;;;;;;2115532;28;1446;-82
2021/10/02 04:27:40;;;;;;;;;;;;;;;;;;2107822;28;1311;-82
2021/10/02 04:28:41;;;;;;;;;;;;;;;;;;2107612;28;1233;-82
2021/10/02 04:29:43;;;;;;;;;;;;;;;;;;2107782;28;1218;-82
2021/10/02 04:30:44;;;;;;;;;;;;;;;;;;2121187;28;1209;-82
2021/10/02 04:31:47;;;;;;;;;;;;;;;;;;2116331;28;1225;-82
2021/10/02 04:32:47;;;;;;;;;;;;;;;;;;2107125;28;1273;-82
2021/10/02 04:33:51;;;;;;;;;;;;;;;;;;2099122;28;2000;-83
2021/10/02 04:34:52;;;;;;;;;;;;;;;;;;2099595;28;1322;-82
2021/10/02 04:35:53;;;;;;;;;;;;;;;;;;2107753;28;1440;-82
2021/10/02 04:36:54;;;;;;;;;;;;;;;;;;2116053;28;1285;-82
2021/10/02 04:37:57;;;;;;;;;;;;;;;;;;2116201;28;1589;-82
2021/10/02 04:38:58;;;;;;;;;;;;;;;;;;2107388;28;1245;-83
2021/10/02 04:40:00;;;;;;;;;;;;;;;;;;2099457;28;1397;-83
2021/10/02 04:41:01;;;;;;;;;;;;;;;;;;2107907;28;1275;-83
2021/10/02 04:42:04;;;;;;;;;;;;;;;;;;2109292;28;1989;-84
2021/10/02 04:43:04;;;;;;;;;;;;;;;;;;2101037;28;1275;-84
2021/10/02 04:44:06;;;;;;;;;;;;;;;;;;2100924;28;1326;-83
2021/10/02 04:45:07;;;;;;;;;;;;;;;;;;2100653;28;1461;-84
2021/10/02 04:46:10;;;;;;;;;;;;;;;;;;2100871;28;1313;-83
2021/10/02 04:47:12;;;;;;;;;;;;;;;;;;2101171;28;1348;-83
2021/10/02 04:48:14;;;;;;;;;;;;;;;;;;2101448;28;1813;-84
2021/10/02 04:49:17;;;;;;;;;;;;;;;;;;2109772;28;1273;-84
2021/10/02 04:50:19;;;;;;;;;;;;;;;;;;2117886;28;1364;-84
2021/10/02 04:51:20;;;;;;;;;;;;;;;;;;2109351;28;1257;-83
2021/10/02 04:52:22;;;;;;;;;;;;;;;;;;2109488;28;1351;-83
2021/10/02 04:53:22;;;;;;;;;;;;;;;;;;2109092;28;1216;-83
2021/10/02 04:54:24;;;;;;;;;;;;;;;;;;2117217;28;1505;-83
2021/10/02 04:55:25;;;;;;;;;;;;;;;;;;2117357;28;1241;-81
2021/10/02 04:56:27;;;;;;;;;;;;;;;;;;2109070;28;1543;-81
2021/10/02 04:57:28;;;;;;;;;;;;;;;;;;2100787;28;1202;-81
2021/10/02 04:58:29;;;;;;;;;;;;;;;;;;2103416;28;2030;-81
2021/10/02 04:59:30;;;;;;;;;;;;;;;;;;2108788;28;1416;-80
2021/10/02 05:00:32;;;;;;;;;;;;;;;;;;2109069;28;1373;-81
2021/10/02 05:01:34;;;;;;;;;;;;;;;;;;2108874;28;1918;-81
2021/10/02 05:02:35;;;;;;;;;;;;;;;;;;2117332;28;1352;-81
2021/10/02 05:03:37;;;;;;;;;;;;;;;;;;2121450;27;2029;-81
2021/10/02 05:04:39;;;;;;;;;;;;;;;;;;2117489;28;1661;-81
2021/10/02 05:05:41;;;;;;;;;;;;;;;;;;2122189;27;1573;-81
2021/10/02 05:06:41;;;;;;;;;;;;;;;;;;2117437;28;1573;-81
2021/10/02 05:07:44;;;;;;;;;;;;;;;;;;2109312;28;1166;-81
2021/10/02 05:08:45;;;;;;;;;;;;;;;;;;2109027;27;1364;-82
2021/10/02 05:09:47;;;;;;;;;;;;;;;;;;2117750;28;1265;-81
2021/10/02 05:10:48;;;;;;;;;;;;;;;;;;2117434;28;1338;-81
2021/10/02 05:11:50;;;;;;;;;;;;;;;;;;2117626;28;1225;-81
2021/10/02 05:13:01;;;;;;;;;;;;;;;;;;2117674;28;1558;-82
2021/10/02 05:14:03;;;;;;;;;;;;;;;;;;2109674;28;2199;-82
2021/10/02 05:15:05;;;;;;;;;;;;;;;;;;2100743;28;1299;-82
2021/10/02 05:16:06;;;;;;;;;;;;;;;;;;2109121;28;1324;-83
2021/10/02 05:17:11;;;;;;;;;;;;;;;;;;2117700;27;1333;-81
2021/10/02 05:18:13;;;;;;;;;;;;;;;;;;2117133;28;1387;-83
2021/10/02 05:19:13;;;;;;;;;;;;;;;;;;2109140;28;1308;-82
2021/10/02 05:20:16;;;;;;;;;;;;;;;;;;2106681;28;1811;-85
2021/10/02 05:21:19;;;;;;;;;;;;;;;;;;2109514;28;1453;-83
2021/10/02 05:22:22;;;;;;;;;;;;;;;;;;2108954;28;1915;-81
2021/10/02 05:23:24;;;;;;;;;;;;;;;;;;2100464;28;1928;-82
2021/10/02 05:24:26;;;;;;;;;;;;;;;;;;2101017;28;1325;-82
2021/10/02 05:25:27;;;;;;;;;;;;;;;;;;2116264;28;1284;-79
2021/10/02 05:26:30;;;;;;;;;;;;;;;;;;2107610;28;1854;-79
2021/10/02 05:27:31;;;;;;;;;;;;;;;;;;2116827;28;1598;-79
2021/10/02 05:28:33;;;;;;;;;;;;;;;;;;2114737;28;1717;-79
2021/10/02 05:29:34;;;;;;;;;;;;;;;;;;2103534;28;1265;-79
2021/10/02 05:30:36;;;;;;;;;;;;;;;;;;2119494;27;1744;-79
2021/10/02 05:31:36;;;;;;;;;;;;;;;;;;2125354;27;1563;-78
2021/10/02 05:32:38;;;;;;;;;;;;;;;;;;2108300;28;1534;-78
2021/10/02 05:33:39;;;;;;;;;;;;;;;;;;2103969;28;2154;-79
2021/10/02 05:34:41;;;;;;;;;;;;;;;;;;2100318;28;1226;-79
2021/10/02 05:35:45;;;;;;;;;;;;;;;;;;2108027;28;1427;-79
2021/10/02 05:36:46;;;;;;;;;;;;;;;;;;2105431;28;1543;-79
2021/10/02 05:37:47;;;;;;;;;;;;;;;;;;2114300;28;1217;-80
2021/10/02 05:38:49;;;;;;;;;;;;;;;;;;2111685;28;1708;-80
2021/10/02 05:39:51;;;;;;;;;;;;;;;;;;2111398;28;1673;-80
2021/10/02 05:40:52;;;;;;;;;;;;;;;;;;2096929;28;1506;-79
2021/10/02 05:41:53;;;;;;;;;;;;;;;;;;2100031;28;1902;-79
2021/10/02 05:42:54;;;;;;;;;;;;;;;;;;2105824;28;1706;-79
2021/10/02 05:43:56;;;;;;;;;;;;;;;;;;2107126;28;1700;-79
2021/10/02 05:44:58;;;;;;;;;;;;;;;;;;2100291;28;1425;-79
2021/10/02 05:45:59;;;;;;;;;;;;;;;;;;2102925;28;1398;-79
2021/10/02 05:47:01;;;;;;;;;;;;;;;;;;2103438;28;1538;-79
2021/10/02 05:48:02;;;;;;;;;;;;;;;;;;2108569;28;1649;-79
2021/10/02 05:49:04;;;;;;;;;;;;;;;;;;2095707;28;1352;-79
2021/10/02 05:50:05;;;;;;;;;;;;;;;;;;2092001;28;1369;-79
2021/10/02 05:51:08;;;;;;;;;;;;;;;;;;2108407;28;1951;-79
2021/10/02 05:52:10;;;;;;;;;;;;;;;;;;2105772;28;1683;-79
2021/10/02 05:53:12;;;;;;;;;;;;;;;;;;2108362;28;1674;-79
2021/10/02 05:54:13;;;;;;;;;;;;;;;;;;2116902;28;866;-79
2021/10/02 05:55:15;;;;;;;;;;;;;;;;;;2116020;27;1869;-80
2021/10/02 05:56:16;;;;;;;;;;;;;;;;;;2113683;28;1494;-80
2021/10/02 05:57:17;;;;;;;;;;;;;;;;;;2105912;28;1381;-79
2021/10/02 05:58:19;;;;;;;;;;;;;;;;;;2114515;28;1665;-79
2021/10/02 05:59:19;;;;;;;;;;;;;;;;;;2117258;28;1272;-79
2021/10/02 06:00:21;;;;;;;;;;;;;;;;;;2116713;28;2084;-79
2021/10/02 06:01:23;;;;;;;;;;;;;;;;;;2102521;28;1789;-80
2021/10/02 06:02:24;;;;;;;;;;;;;;;;;;2108230;28;1972;-80
2021/10/02 06:03:26;;;;;;;;;;;;;;;;;;2117034;28;1631;-79
2021/10/02 06:04:27;;;;;;;;;;;;;;;;;;2125373;27;886;-80
2021/10/02 06:05:28;;;;;;;;;;;;;;;;;;2118949;27;1830;-79
2021/10/02 06:06:32;;;;;;;;;;;;;;;;;;2116804;28;1566;-80
2021/10/02 06:07:33;;;;;;;;;;;;;;;;;;2114871;28;1325;-79
2021/10/02 06:08:35;;;;;;;;;;;;;;;;;;2102586;28;1792;-80
2021/10/02 06:09:35;;;;;;;;;;;;;;;;;;2108769;28;1256;-79
2021/10/02 06:10:37;;;;;;;;;;;;;;;;;;2120607;27;1829;-79
2021/10/02 06:11:38;;;;;;;;;;;;;;;;;;2114354;28;1597;-79
2021/10/02 06:12:40;;;;;;;;;;;;;;;;;;2116799;28;1308;-79
2021/10/02 06:13:40;;;;;;;;;;;;;;;;;;2116322;28;2010;-79
2021/10/02 06:14:42;;;;;;;;;;;;;;;;;;2113637;28;1645;-79
2021/10/02 06:15:43;;;;;;;;;;;;;;;;;;2105729;28;1808;-79
2021/10/02 06:16:45;;;;;;;;;;;;;;;;;;2108325;28;1564;-80
2021/10/02 06:17:47;;;;;;;;;;;;;;;;;;2099777;28;1609;-79
2021/10/02 06:18:47;;;;;;;;;;;;;;;;;;2108218;28;1549;-80
2021/10/02 06:19:49;;;;;;;;;;;;;;;;;;2123255;27;1682;-80
2021/10/02 06:20:50;;;;;;;;;;;;;;;;;;2101410;28;1378;-79
2021/10/02 06:21:54;;;;;;;;;;;;;;;;;;2100106;28;1817;-79
2021/10/02 06:22:56;;;;;;;;;;;;;;;;;;2118748;27;1905;-79
2021/10/02 06:23:59;;;;;;;;;;;;;;;;;;2109394;28;1677;-80
2021/10/02 06:25:05;;;;;;;;;;;;;;;;;;2100227;28;1755;-80
2021/10/02 06:26:07;;;;;;;;;;;;;;;;;;2108479;28;1227;-80
2021/10/02 06:27:08;;;;;;;;;;;;;;;;;;2107895;28;1784;-80
2021/10/02 06:28:09;;;;;;;;;;;;;;;;;;2108018;28;1773;-81
2021/10/02 06:29:11;;;;;;;;;;;;;;;;;;2116396;28;1542;-80
2021/10/02 06:30:12;;;;;;;;;;;;;;;;;;2108007;28;1684;-80
2021/10/02 06:31:14;;;;;;;;;;;;;;;;;;2099722;28;1639;-80
2021/10/02 06:32:16;;;;;;;;;;;;;;;;;;2106794;28;1674;-83
2021/10/02 06:33:16;;;;;;;;;;;;;;;;;;2099927;28;1766;-81
2021/10/02 06:34:18;;;;;;;;;;;;;;;;;;2104144;28;1357;-81
2021/10/02 06:35:19;;;;;;;;;;;;;;;;;;2108071;28;2104;-81
2021/10/02 06:36:21;;;;;;;;;;;;;;;;;;2106701;28;1468;-80
2021/10/02 06:37:24;;;;;;;;;;;;;;;;;;2104863;28;1296;-79
2021/10/02 06:38:26;;;;;;;;;;;;;;;;;;2104224;28;1495;-80
2021/10/02 06:39:27;;;;;;;;;;;;;;;;;;2113582;28;1668;-80
2021/10/02 06:40:29;;;;;;;;;;;;;;;;;;2113291;28;1686;-79
2021/10/02 06:41:31;;;;;;;;;;;;;;;;;;2099710;28;1644;-79
2021/10/02 06:42:32;;;;;;;;;;;;;;;;;;2099702;28;1914;-79
2021/10/02 06:43:34;;;;;;;;;;;;;;;;;;2107324;28;1859;-79
2021/10/02 06:44:35;;;;;;;;;;;;;;;;;;2107322;28;1470;-79
2021/10/02 06:45:37;;;;;;;;;;;;;;;;;;2116178;28;1654;-79
2021/10/02 06:46:38;;;;;;;;;;;;;;;;;;2124871;27;1249;-79
2021/10/02 06:47:40;;;;;;;;;;;;;;;;;;2109725;28;1540;-79
2021/10/02 06:48:41;;;;;;;;;;;;;;;;;;2099967;28;1856;-79
2021/10/02 06:49:43;;;;;;;;;;;;;;;;;;2099224;28;1559;-80
2021/10/02 06:50:44;;;;;;;;;;;;;;;;;;2115996;28;1701;-79
2021/10/02 06:51:46;;;;;;;;;;;;;;;;;;2115961;28;1320;-81
2021/10/02 06:52:48;;;;;;;;;;;;;;;;;;2107845;28;1545;-80
2021/10/02 06:53:49;;;;;;;;;;;;;;;;;;2113575;28;1781;-80
2021/10/02 06:54:50;;;;;;;;;;;;;;;;;;2116374;27;1229;-80
2021/10/02 06:55:52;;;;;;;;;;;;;;;;;;2111322;28;1623;-80
2021/10/02 06:56:53;;;;;;;;;;;;;;;;;;2104594;28;1324;-80
2021/10/02 06:57:55;;;;;;;;;;;;;;;;;;2116403;28;1546;-80
2021/10/02 06:58:56;;;;;;;;;;;;;;;;;;2111432;28;1341;-80
2021/10/02 06:59:57;;;;;;;;;;;;;;;;;;2107971;28;1739;-80
2021/10/02 07:00:58;;;;;;;;;;;;;;;;;;2101304;28;1338;-79
2021/10/02 07:02:01;;;;;;;;;;;;;;;;;;2101504;28;1878;-80
2021/10/02 07:03:01;;;;;;;;;;;;;;;;;;2099729;28;1983;-78
2021/10/02 07:04:03;;;;;;;;;;;;;;;;;;2112392;28;1808;-79
2021/10/02 07:05:06;;;;;;;;;;;;;;;;;;2102063;28;1583;-79
2021/10/02 07:06:07;;;;;;;;;;;;;;;;;;2115594;28;1314;-79
2021/10/02 07:07:09;;;;;;;;;;;;;;;;;;2113608;28;2025;-79
2021/10/02 07:08:11;;;;;;;;;;;;;;;;;;2100838;28;1732;-79
2021/10/02 07:09:13;;;;;;;;;;;;;;;;;;2098929;28;1534;-80
2021/10/02 07:10:14;;;;;;;;;;;;;;;;;;2100282;28;1650;-80
2021/10/02 07:11:16;;;;;;;;;;;;;;;;;;2111744;28;1610;-79
2021/10/02 07:12:16;;;;;;;;;;;;;;;;;;2099379;28;1533;-80
2021/10/02 07:13:18;;;;;;;;;;;;;;;;;;2100465;28;1736;-80
2021/10/02 07:14:19;;;;;;;;;;;;;;;;;;2107839;28;1540;-80
2021/10/02 07:15:21;;;;;;;;;;;;;;;;;;2109101;28;1266;-80
2021/10/02 07:16:22;;;;;;;;;;;;;;;;;;2115974;28;1273;-79
2021/10/02 07:17:24;;;;;;;;;;;;;;;;;;2122000;27;1705;-79
2021/10/02 07:18:24;;;;;;;;;;;;;;;;;;2110220;28;1702;-80
2021/10/02 07:19:26;;;;;;;;;;;;;;;;;;2113216;28;1309;-81
2021/10/02 07:20:27;;;;;;;;;;;;;;;;;;2107456;28;1853;-80
2021/10/02 07:21:29;;;;;;;;;;;;;;;;;;2107390;28;1649;-80
2021/10/02 07:22:34;;;;;;;;;;;;;;;;;;2099468;28;1913;-80
2021/10/02 07:23:38;;;;;;;;;;;;;;;;;;2108394;28;1572;-79
2021/10/02 07:24:38;;;;;;;;;;;;;;;;;;2108011;28;1334;-79
2021/10/02 07:25:41;;;;;;;;;;;;;;;;;;2107382;28;1853;-79
2021/10/02 07:26:42;;;;;;;;;;;;;;;;;;2107211;28;1277;-79
2021/10/02 07:27:44;;;;;;;;;;;;;;;;;;2101330;28;1560;-79
2021/10/02 07:28:45;;;;;;;;;;;;;;;;;;2092123;28;1647;-80
2021/10/02 07:29:47;;;;;;;;;;;;;;;;;;2104741;28;1572;-80
2021/10/02 07:30:49;;;;;;;;;;;;;;;;;;2116444;27;1683;-79
2021/10/02 07:31:50;;;;;;;;;;;;;;;;;;2101337;28;1340;-79
2021/10/02 07:32:52;;;;;;;;;;;;;;;;;;2099226;28;1729;-79
2021/10/02 07:33:52;;;;;;;;;;;;;;;;;;2090929;28;1755;-79
2021/10/02 07:34:54;;;;;;;;;;;;;;;;;;2094672;28;1700;-80
2021/10/02 07:35:55;;;;;;;;;;;;;;;;;;2097825;28;1871;-80
2021/10/02 07:36:57;;;;;;;;;;;;;;;;;;2098715;28;1654;-79
2021/10/02 07:37:58;;;;;;;;;;;;;;;;;;2114372;28;1690;-80
2021/10/02 07:39:02;;;;;;;;;;;;;;;;;;2100700;28;1653;-84
2021/10/02 07:40:03;;;;;;;;;;;;;;;;;;2107702;28;1547;-80
2021/10/02 07:41:05;;;;;;;;;;;;;;;;;;2104202;28;2015;-79
2021/10/02 07:42:06;;;;;;;;;;;;;;;;;;2107390;28;1413;-80
2021/10/02 07:43:08;;;;;;;;;;;;;;;;;;2099179;28;1914;-79
2021/10/02 07:44:10;;;;;;;;;;;;;;;;;;2107859;28;1301;-80
2021/10/02 07:45:12;;;;;;;;;;;;;;;;;;2107315;28;1613;-79
2021/10/02 07:46:15;;;;;;;;;;;;;;;;;;2099193;28;1479;-80
2021/10/02 07:47:18;;;;;;;;;;;;;;;;;;2107731;28;1517;-80
2021/10/02 07:48:24;;;;;;;;;;;;;;;;;;2105562;28;1915;-80
2021/10/02 07:49:27;;;;;;;;;;;;;;;;;;2101296;28;1312;-81
2021/10/02 07:50:28;;;;;;;;;;;;;;;;;;2101142;28;1592;-80
2021/10/02 07:51:29;;;;;;;;;;;;;;;;;;2101481;28;1606;-80
2021/10/02 07:52:31;;;;;;;;;;;;;;;;;;2096481;28;1369;-80
2021/10/02 07:53:33;;;;;;;;;;;;;;;;;;2104506;28;1694;-80
2021/10/02 07:54:37;;;;;;;;;;;;;;;;;;2107346;28;1249;-82
2021/10/02 07:55:40;;;;;;;;;;;;;;;;;;2094735;28;1412;-81
2021/10/02 07:56:42;;;;;;;;;;;;;;;;;;2099304;28;1794;-80
2021/10/02 07:57:45;;;;;;;;;;;;;;;;;;2107958;28;1308;-80
2021/10/02 07:58:46;;;;;;;;;;;;;;;;;;2110346;28;1917;-80
2021/10/02 07:59:49;;;;;;;;;;;;;;;;;;2107627;28;1653;-80
2021/10/02 08:00:53;;;;;;;;;;;;;;;;;;2106538;28;1854;-80
2021/10/02 08:01:57;;;;;;;;;;;;;;;;;;2097607;28;1641;-80
2021/10/02 08:02:59;;;;;;;;;;;;;;;;;;2105821;28;1898;-80
2021/10/02 08:04:02;;;;;;;;;;;;;;;;;;2114133;28;1529;-80